createdAt,value
2022-10-30T00:01:25.885Z,6.75
2022-10-30T00:03:54.326Z,7.13
2022-10-30T00:06:22.748Z,6.82
2022-10-30T00:08:51.784Z,6.25
2022-10-30T00:11:20.552Z,7.47
2022-10-30T00:13:50.759Z,6.57
2022-10-30T00:16:19.163Z,6.50
2022-10-30T00:18:47.539Z,7.90
2022-10-30T00:21:17.646Z,7.22
2022-10-30T00:23:50.330Z,6.97
2022-10-30T00:26:20.888Z,7.72
2022-10-30T00:28:52.750Z,6.30
2022-10-30T00:31:21.618Z,7.00
2022-10-30T00:33:51.227Z,6.43
2022-10-30T00:36:20.795Z,6.43
2022-10-30T00:38:49.316Z,5.97
2022-10-30T00:41:24.015Z,6.95
2022-10-30T00:43:53.941Z,7.15
2022-10-30T00:46:29.114Z,6.97
2022-10-30T00:49:01.637Z,6.10
2022-10-30T00:51:33.617Z,6.60
2022-10-30T00:54:06.087Z,6.00
2022-10-30T00:56:36.170Z,5.90
2022-10-30T00:59:09.487Z,6.20
2022-10-30T01:01:40.320Z,5.50
2022-10-30T01:04:09.917Z,5.80
2022-10-30T01:06:41.718Z,6.85
2022-10-30T01:09:10.980Z,6.07
2022-10-30T01:11:39.497Z,6.40
2022-10-30T01:14:12.762Z,5.82
2022-10-30T01:16:58.456Z,5.93
2022-10-30T01:19:41.321Z,5.45
2022-10-30T01:22:27.571Z,5.93
2022-10-30T01:25:08.456Z,5.50
2022-10-30T01:27:43.853Z,4.82
2022-10-30T01:30:28.553Z,5.03
2022-10-30T01:33:12.906Z,4.93
2022-10-30T01:35:49.305Z,6.20
2022-10-30T01:38:30.671Z,5.70
2022-10-30T01:40:59.319Z,6.72
2022-10-30T01:43:28.557Z,6.40
2022-10-30T01:46:18.362Z,6.18
2022-10-30T01:49:10.707Z,6.40
2022-10-30T01:51:49.909Z,5.43
2022-10-30T01:54:29.432Z,5.35
2022-10-30T01:57:08.767Z,6.03
2022-10-30T01:59:43.598Z,5.50
2022-10-30T02:02:15.137Z,5.30
2022-10-30T02:04:43.926Z,5.25
2022-10-30T02:07:13.002Z,5.18
2022-10-30T02:09:48.114Z,5.10
2022-10-30T02:12:17.656Z,5.20
2022-10-30T02:14:50.328Z,5.40
2022-10-30T02:17:21.103Z,5.50
2022-10-30T02:19:51.768Z,5.35
2022-10-30T02:22:21.880Z,5.63
2022-10-30T02:24:51.039Z,5.70
2022-10-30T02:27:22.201Z,5.35
2022-10-30T02:29:51.034Z,5.60
2022-10-30T02:32:19.417Z,5.15
2022-10-30T02:34:48.160Z,5.82
2022-10-30T02:37:16.527Z,5.85
2022-10-30T02:39:47.103Z,5.70
2022-10-30T02:42:16.326Z,5.85
2022-10-30T02:44:46.823Z,6.70
2022-10-30T02:47:15.351Z,6.20
2022-10-30T02:49:44.052Z,7.18
2022-10-30T02:52:12.425Z,5.80
2022-10-30T02:54:43.654Z,6.15
2022-10-30T02:57:13.506Z,5.20
2022-10-30T02:59:42.029Z,5.85
2022-10-30T03:02:10.481Z,5.75
2022-10-30T03:04:39.896Z,6.18
2022-10-30T03:07:08.268Z,6.57
2022-10-30T03:09:37.404Z,7.22
2022-10-30T03:12:06.313Z,6.47
2022-10-30T03:14:36.152Z,6.53
2022-10-30T03:17:06.148Z,6.07
2022-10-30T03:19:35.594Z,4.70
2022-10-30T03:22:04.927Z,4.85
2022-10-30T03:24:33.298Z,4.93
2022-10-30T03:27:02.387Z,5.15
2022-10-30T03:29:30.944Z,5.13
2022-10-30T03:32:01.227Z,5.75
2022-10-30T03:34:34.105Z,5.93
2022-10-30T03:37:07.401Z,6.00
2022-10-30T03:39:36.179Z,5.68
2022-10-30T03:42:05.112Z,8.02
2022-10-30T03:44:33.903Z,5.80
2022-10-30T03:47:05.357Z,6.93
2022-10-30T03:49:39.719Z,5.55
2022-10-30T03:52:12.305Z,6.35
2022-10-30T03:54:41.502Z,5.50
2022-10-30T03:57:11.604Z,8.55
2022-10-30T04:00:02.015Z,6.72
2022-10-30T04:02:58.171Z,5.80
2022-10-30T04:05:30.300Z,6.85
2022-10-30T04:08:00.664Z,6.85
2022-10-30T04:10:32.515Z,8.07
2022-10-30T04:13:05.818Z,9.13
2022-10-30T04:15:36.183Z,8.02
2022-10-30T04:18:06.264Z,8.43
2022-10-30T04:20:36.671Z,7.50
2022-10-30T04:23:07.000Z,8.10
2022-10-30T04:25:36.297Z,7.53
2022-10-30T04:28:05.873Z,7.32
2022-10-30T04:30:35.757Z,7.05
2022-10-30T04:33:09.926Z,6.47
2022-10-30T04:35:39.427Z,6.47
2022-10-30T04:38:15.241Z,6.85
2022-10-30T04:40:45.126Z,6.45
2022-10-30T04:43:15.505Z,5.93
2022-10-30T04:45:45.450Z,5.55
2022-10-30T04:48:18.002Z,6.03
2022-10-30T04:50:48.260Z,5.63
2022-10-30T04:53:24.141Z,6.55
2022-10-30T04:55:58.222Z,5.75
2022-10-30T04:58:29.322Z,6.10
2022-10-30T05:01:05.505Z,5.40
2022-10-30T05:03:36.772Z,5.63
2022-10-30T05:06:21.432Z,6.05
2022-10-30T05:08:50.951Z,5.85
2022-10-30T05:11:29.359Z,5.72
2022-10-30T05:13:58.418Z,5.65
2022-10-30T05:16:27.639Z,5.05
2022-10-30T05:18:59.534Z,5.72
2022-10-30T05:21:28.022Z,6.88
2022-10-30T05:23:56.643Z,7.05
2022-10-30T05:26:25.845Z,7.68
2022-10-30T05:28:55.677Z,7.22
2022-10-30T05:31:24.296Z,7.25
2022-10-30T05:34:19.733Z,8.45
2022-10-30T05:36:51.749Z,8.10
2022-10-30T05:39:22.113Z,8.18
2022-10-30T05:41:52.579Z,9.35
2022-10-30T05:44:40.421Z,8.63
2022-10-30T05:47:12.541Z,8.10
2022-10-30T05:49:45.754Z,7.25
2022-10-30T05:52:19.150Z,7.13
2022-10-30T05:54:47.687Z,6.20
2022-10-30T05:57:21.997Z,6.07
2022-10-30T05:59:50.355Z,6.55
2022-10-30T06:02:19.148Z,6.20
2022-10-30T06:04:49.855Z,6.50
2022-10-30T06:07:19.502Z,7.45
2022-10-30T06:09:48.182Z,7.55
2022-10-30T06:12:37.976Z,6.75
2022-10-30T06:15:15.652Z,6.35
2022-10-30T06:17:44.139Z,6.82
2022-10-30T06:20:19.223Z,5.97
2022-10-30T06:23:02.046Z,6.43
2022-10-30T06:25:42.945Z,6.28
2022-10-30T06:28:16.010Z,8.00
2022-10-30T06:30:44.588Z,7.65
2022-10-30T06:33:13.100Z,7.18
2022-10-30T06:35:51.090Z,8.20
2022-10-30T06:38:21.132Z,6.95
2022-10-30T06:40:50.850Z,6.40
2022-10-30T06:43:27.343Z,7.13
2022-10-30T06:45:59.689Z,6.97
2022-10-30T06:48:29.717Z,7.18
2022-10-30T06:51:02.957Z,6.32
2022-10-30T06:53:34.593Z,6.13
2022-10-30T06:56:21.552Z,9.25
2022-10-30T06:59:16.961Z,8.43
2022-10-30T07:01:48.043Z,7.97
2022-10-30T07:04:24.353Z,7.15
2022-10-30T07:06:54.208Z,6.28
2022-10-30T07:09:23.936Z,6.72
2022-10-30T07:11:56.588Z,6.35
2022-10-30T07:14:31.034Z,6.78
2022-10-30T07:17:12.685Z,6.85
2022-10-30T07:19:43.029Z,6.95
2022-10-30T07:22:12.806Z,8.05
2022-10-30T07:24:46.835Z,8.48
2022-10-30T07:27:43.071Z,8.82
2022-10-30T07:30:35.154Z,9.32
2022-10-30T07:33:22.299Z,8.30
2022-10-30T07:36:01.710Z,9.38
2022-10-30T07:38:54.356Z,8.50
2022-10-30T07:41:36.551Z,8.15
2022-10-30T07:44:23.228Z,7.78
2022-10-30T07:47:13.582Z,9.98
2022-10-30T07:50:11.869Z,9.27
2022-10-30T07:52:41.714Z,8.85
2022-10-30T07:55:12.662Z,9.45
2022-10-30T07:58:04.945Z,8.38
2022-10-30T08:00:51.822Z,8.63
2022-10-30T08:03:30.061Z,6.90
2022-10-30T08:06:27.190Z,6.57
2022-10-30T08:08:57.249Z,6.38
2022-10-30T08:11:31.661Z,6.72
2022-10-30T08:14:01.930Z,7.40
2022-10-30T08:16:30.431Z,8.27
2022-10-30T08:18:59.646Z,9.35
2022-10-30T08:21:29.533Z,8.45
2022-10-30T08:24:05.554Z,8.00
2022-10-30T08:26:37.765Z,7.75
2022-10-30T08:29:06.367Z,8.48
2022-10-30T08:31:34.708Z,8.43
2022-10-30T08:34:04.635Z,8.80
2022-10-30T08:36:51.806Z,7.45
2022-10-30T08:39:22.098Z,8.27
2022-10-30T08:42:04.732Z,7.88
2022-10-30T08:44:40.260Z,8.50
2022-10-30T08:47:11.278Z,8.15
2022-10-30T08:49:41.217Z,8.07
2022-10-30T08:52:10.890Z,7.40
2022-10-30T08:54:40.773Z,8.38
2022-10-30T08:57:10.688Z,9.38
2022-10-30T08:59:41.568Z,9.60
2022-10-30T09:02:16.660Z,7.82
2022-10-30T09:08:09.661Z,7.45
2022-10-30T09:10:58.586Z,6.93
2022-10-30T09:13:29.417Z,7.28
2022-10-30T09:16:01.474Z,7.45
2022-10-30T09:18:32.846Z,7.15
2022-10-30T09:21:04.585Z,7.30
2022-10-30T09:23:40.117Z,7.72
2022-10-30T09:26:27.134Z,7.40
2022-10-30T09:29:36.104Z,6.53
2022-10-30T09:32:20.938Z,6.72
2022-10-30T09:35:11.854Z,7.15
2022-10-30T09:37:42.300Z,7.13
2022-10-30T09:40:24.062Z,7.00
2022-10-30T09:42:53.871Z,6.75
2022-10-30T09:45:57.434Z,7.30
2022-10-30T09:48:46.364Z,6.28
2022-10-30T09:51:45.110Z,6.65
2022-10-30T09:54:24.694Z,5.88
2022-10-30T09:57:06.258Z,5.43
2022-10-30T09:59:47.161Z,5.75
2022-10-30T10:02:29.165Z,5.80
2022-10-30T10:05:01.900Z,5.28
2022-10-30T10:07:54.004Z,4.97
2022-10-30T10:10:41.404Z,4.82
2022-10-30T10:13:29.650Z,5.30
2022-10-30T10:16:05.143Z,4.53
2022-10-30T10:18:45.397Z,4.82
2022-10-30T10:21:22.717Z,4.35
2022-10-30T10:23:53.714Z,4.72
2022-10-30T10:26:31.824Z,4.35
2022-10-30T10:29:22.733Z,4.55
2022-10-30T10:32:10.473Z,4.15
2022-10-30T10:34:53.446Z,4.45
2022-10-30T10:37:33.561Z,4.05
2022-10-30T10:40:21.737Z,4.03
2022-10-30T10:43:05.364Z,4.13
2022-10-30T10:45:45.385Z,4.38
2022-10-30T10:48:39.131Z,4.47
2022-10-30T10:51:15.686Z,4.60
2022-10-30T10:53:47.825Z,4.05
2022-10-30T10:56:17.454Z,4.35
2022-10-30T10:58:51.317Z,4.07
2022-10-30T11:01:24.988Z,3.50
2022-10-30T11:04:01.513Z,3.50
2022-10-30T11:06:36.208Z,3.55
2022-10-30T11:09:16.646Z,3.67
2022-10-30T11:11:45.788Z,4.15
2022-10-30T11:14:16.859Z,12.48
2022-10-30T11:17:05.590Z,5.50
2022-10-30T11:19:34.456Z,4.55
2022-10-30T11:22:10.952Z,3.63
2022-10-30T11:24:40.117Z,3.55
2022-10-30T11:27:25.021Z,5.15
2022-10-30T11:29:56.206Z,3.63
2022-10-30T11:32:28.792Z,4.15
2022-10-30T11:35:12.629Z,3.83
2022-10-30T11:37:44.501Z,3.85
2022-10-30T11:40:22.654Z,4.22
2022-10-30T11:42:57.227Z,3.63
2022-10-30T11:45:29.002Z,4.03
2022-10-30T11:48:02.798Z,3.78
2022-10-30T11:50:33.422Z,3.50
2022-10-30T11:53:14.525Z,3.78
2022-10-30T11:55:47.764Z,3.83
2022-10-30T11:58:27.602Z,3.97
2022-10-30T12:01:02.981Z,4.32
2022-10-30T12:03:37.274Z,3.80
2022-10-30T12:06:11.251Z,4.00
2022-10-30T12:08:41.081Z,4.38
2022-10-30T12:11:10.298Z,4.10
2022-10-30T12:13:41.203Z,4.60
2022-10-30T12:16:15.899Z,4.45
2022-10-30T12:18:58.596Z,3.90
2022-10-30T12:21:28.793Z,4.18
2022-10-30T12:24:06.762Z,3.55
2022-10-30T12:26:38.875Z,4.80
2022-10-30T12:29:13.862Z,3.88
2022-10-30T12:31:47.600Z,4.00
2022-10-30T12:34:33.053Z,3.80
2022-10-30T12:37:09.482Z,4.47
2022-10-30T12:39:51.567Z,3.92
2022-10-30T12:42:23.519Z,4.30
2022-10-30T12:45:03.479Z,3.70
2022-10-30T12:47:39.155Z,4.13
2022-10-30T12:50:18.483Z,4.30
2022-10-30T12:52:54.347Z,3.97
2022-10-30T12:55:29.956Z,3.85
2022-10-30T12:58:06.871Z,3.70
2022-10-30T13:00:45.433Z,4.30
2022-10-30T13:03:25.740Z,3.83
2022-10-30T13:05:57.729Z,3.78
2022-10-30T13:08:33.092Z,3.95
2022-10-30T13:11:08.793Z,4.35
2022-10-30T13:13:40.633Z,4.00
2022-10-30T13:16:15.607Z,4.35
2022-10-30T13:18:43.991Z,3.90
2022-10-30T13:21:22.403Z,4.40
2022-10-30T13:23:56.332Z,3.88
2022-10-30T13:26:35.853Z,4.80
2022-10-30T13:29:14.025Z,4.53
2022-10-30T13:31:54.212Z,3.78
2022-10-30T13:34:32.587Z,3.75
2022-10-30T13:37:09.160Z,4.25
2022-10-30T13:39:42.373Z,3.70
2022-10-30T13:42:38.649Z,3.97
2022-10-30T13:45:27.282Z,4.05
2022-10-30T13:48:05.525Z,4.38
2022-10-30T13:50:47.468Z,3.65
2022-10-30T13:53:21.419Z,4.00
2022-10-30T13:55:50.870Z,4.13
2022-10-30T13:58:27.890Z,4.05
2022-10-30T14:01:05.060Z,4.40
2022-10-30T14:03:43.858Z,4.45
2022-10-30T14:06:23.434Z,4.00
2022-10-30T14:09:02.018Z,4.30
2022-10-30T14:11:30.445Z,4.45
2022-10-30T14:14:06.538Z,3.75
2022-10-30T14:16:45.567Z,3.95
2022-10-30T14:19:14.985Z,4.25
2022-10-30T14:21:52.306Z,3.90
2022-10-30T14:24:23.837Z,4.38
2022-10-30T14:26:56.000Z,4.05
2022-10-30T14:29:39.637Z,4.38
2022-10-30T14:32:46.753Z,4.70
2022-10-30T14:35:39.807Z,3.75
2022-10-30T14:38:28.237Z,4.65
2022-10-30T14:41:34.504Z,4.13
2022-10-30T14:44:22.367Z,4.28
2022-10-30T14:47:06.536Z,3.90
2022-10-30T14:49:58.302Z,4.82
2022-10-30T14:52:41.692Z,4.68
2022-10-30T14:55:28.666Z,4.93
2022-10-30T14:58:18.609Z,4.65
2022-10-30T15:00:47.629Z,4.53
2022-10-30T15:03:36.747Z,4.43
2022-10-30T15:06:14.309Z,4.68
2022-10-30T15:09:10.381Z,4.43
2022-10-30T15:12:00.992Z,5.15
2022-10-30T15:14:48.624Z,4.95
2022-10-30T15:17:29.702Z,4.50
2022-10-30T15:20:02.513Z,4.47
2022-10-30T15:22:33.245Z,4.82
2022-10-30T15:25:02.574Z,4.15
2022-10-30T15:27:36.023Z,4.45
2022-10-30T15:30:05.962Z,4.40
2022-10-30T15:32:35.472Z,4.25
2022-10-30T15:35:15.667Z,4.70
2022-10-30T15:37:59.078Z,4.57
2022-10-30T15:40:27.558Z,4.70
2022-10-30T15:42:58.611Z,4.63
2022-10-30T15:45:33.791Z,4.82
2022-10-30T15:48:10.352Z,4.82
2022-10-30T15:50:44.549Z,4.30
2022-10-30T15:53:20.037Z,4.38
2022-10-30T15:55:50.919Z,4.43
2022-10-30T15:58:23.857Z,4.60
2022-10-30T16:01:01.017Z,4.45
2022-10-30T16:03:31.097Z,4.70
2022-10-30T16:06:18.951Z,4.57
2022-10-30T16:08:48.877Z,4.63
2022-10-30T16:11:17.458Z,4.30
2022-10-30T16:13:46.777Z,4.68
2022-10-30T16:16:21.778Z,4.53
2022-10-30T16:18:50.562Z,8.23
2022-10-30T16:21:24.173Z,13.05
2022-10-30T16:23:54.885Z,8.80
2022-10-30T16:26:33.110Z,6.47
2022-10-30T16:29:08.436Z,5.97
2022-10-30T16:31:38.966Z,5.45
2022-10-30T16:34:14.920Z,5.60
2022-10-30T16:36:44.761Z,5.38
2022-10-30T16:39:16.436Z,4.30
2022-10-30T16:41:45.938Z,4.50
2022-10-30T16:44:28.672Z,5.55
2022-10-30T16:47:00.649Z,5.38
2022-10-30T16:49:31.665Z,5.70
2022-10-30T16:52:05.672Z,5.38
2022-10-30T16:54:38.387Z,4.20
2022-10-30T16:57:14.835Z,4.72
2022-10-30T16:59:49.287Z,4.22
2022-10-30T17:02:20.673Z,4.53
2022-10-30T17:04:55.539Z,3.85
2022-10-30T17:07:28.049Z,4.07
2022-10-30T17:09:58.646Z,4.15
2022-10-30T17:12:29.138Z,5.45
2022-10-30T17:15:12.673Z,4.35
2022-10-30T17:17:43.093Z,4.32
2022-10-30T17:20:29.993Z,4.28
2022-10-30T17:23:13.890Z,4.90
2022-10-30T17:25:43.502Z,5.10
2022-10-30T17:28:26.861Z,4.68
2022-10-30T17:30:56.795Z,4.75
2022-10-30T17:33:43.210Z,4.82
2022-10-30T17:36:12.348Z,4.80
2022-10-30T17:38:42.142Z,4.40
2022-10-30T17:41:17.122Z,4.63
2022-10-30T17:43:51.189Z,4.50
2022-10-30T17:46:20.460Z,5.40
2022-10-30T17:48:49.771Z,4.95
2022-10-30T17:51:19.908Z,5.18
2022-10-30T17:53:50.444Z,5.00
2022-10-30T17:56:22.643Z,4.40
2022-10-30T17:58:51.568Z,4.72
2022-10-30T18:01:23.047Z,4.90
2022-10-30T18:03:53.059Z,5.55
2022-10-30T18:06:23.985Z,6.07
2022-10-30T18:08:54.561Z,6.82
2022-10-30T18:11:27.565Z,7.00
2022-10-30T18:13:58.204Z,7.40
2022-10-30T18:16:27.262Z,6.82
2022-10-30T18:18:55.680Z,6.82
2022-10-30T18:21:27.994Z,6.45
2022-10-30T18:23:58.095Z,6.00
2022-10-30T18:26:28.263Z,7.13
2022-10-30T18:28:57.355Z,7.38
2022-10-30T18:31:26.583Z,8.65
2022-10-30T18:33:56.521Z,7.10
2022-10-30T18:36:26.349Z,6.95
2022-10-30T18:38:56.654Z,6.63
2022-10-30T18:41:32.189Z,6.38
2022-10-30T18:44:01.097Z,5.97
2022-10-30T18:46:32.023Z,5.68
2022-10-30T18:49:00.566Z,6.28
2022-10-30T18:51:30.138Z,6.13
2022-10-30T18:53:58.930Z,5.57
2022-10-30T18:56:30.717Z,5.53
2022-10-30T18:59:02.099Z,5.78
2022-10-30T19:01:32.594Z,5.85
2022-10-30T19:04:04.181Z,6.10
2022-10-30T19:06:34.303Z,6.05
2022-10-30T19:09:03.862Z,6.20
2022-10-30T19:11:34.082Z,6.88
2022-10-30T19:14:02.548Z,6.60
2022-10-30T19:16:31.563Z,6.35
2022-10-30T19:19:00.421Z,5.65
2022-10-30T19:21:33.394Z,6.50
2022-10-30T19:24:03.294Z,5.97
2022-10-30T19:26:33.221Z,6.13
2022-10-30T19:29:01.612Z,6.47
2022-10-30T19:31:29.982Z,5.93
2022-10-30T19:33:58.754Z,5.93
2022-10-30T19:36:30.383Z,6.10
2022-10-30T19:39:02.876Z,5.95
2022-10-30T19:41:39.136Z,9.13
2022-10-30T19:44:07.958Z,9.18
2022-10-30T19:46:37.897Z,7.70
2022-10-30T19:49:17.009Z,8.52
2022-10-30T19:51:46.221Z,7.60
2022-10-30T19:54:15.087Z,8.60
2022-10-30T19:56:44.918Z,7.32
2022-10-30T19:59:15.205Z,6.07
2022-10-30T20:01:44.560Z,5.90
2022-10-30T20:04:14.184Z,5.97
2022-10-30T20:06:43.490Z,7.75
2022-10-30T20:09:13.377Z,7.28
2022-10-30T20:11:41.826Z,7.15
2022-10-30T20:14:11.566Z,7.30
2022-10-30T20:16:40.624Z,7.13
2022-10-30T20:19:27.740Z,7.13
2022-10-30T20:21:56.871Z,5.78
2022-10-30T20:24:25.458Z,6.85
2022-10-30T20:26:56.649Z,7.05
2022-10-30T20:29:27.138Z,6.57
2022-10-30T20:31:55.711Z,6.45
2022-10-30T20:34:24.517Z,7.40
2022-10-30T20:36:52.952Z,6.30
2022-10-30T20:39:21.787Z,7.30
2022-10-30T20:41:50.494Z,6.55
2022-10-30T20:44:19.716Z,6.78
2022-10-30T20:46:49.977Z,6.88
2022-10-30T20:49:18.828Z,6.68
2022-10-30T20:51:47.603Z,6.53
2022-10-30T20:54:17.137Z,6.35
2022-10-30T20:56:46.749Z,5.90
2022-10-30T20:59:15.299Z,6.80
2022-10-30T21:01:43.830Z,5.80
2022-10-30T21:04:14.334Z,6.50
2022-10-30T21:06:42.720Z,6.68
2022-10-30T21:09:11.520Z,6.80
2022-10-30T21:11:39.937Z,6.88
2022-10-30T21:14:08.569Z,6.75
2022-10-30T21:16:37.441Z,7.22
2022-10-30T21:19:06.345Z,6.88
2022-10-30T21:21:36.629Z,6.63
2022-10-30T21:24:05.397Z,7.00
2022-10-30T21:26:35.122Z,6.50
2022-10-30T21:29:03.579Z,6.63
2022-10-30T21:31:32.562Z,6.60
2022-10-30T21:34:01.672Z,5.97
2022-10-30T21:36:30.770Z,6.63
2022-10-30T21:39:00.628Z,5.93
2022-10-30T21:41:29.498Z,6.05
2022-10-30T21:43:59.306Z,5.47
2022-10-30T21:46:30.367Z,6.30
2022-10-30T21:49:04.499Z,6.22
2022-10-30T21:51:33.558Z,5.80
2022-10-30T21:54:03.625Z,6.38
2022-10-30T21:56:32.369Z,6.05
2022-10-30T21:59:04.650Z,6.38
2022-10-30T22:01:36.354Z,7.07
2022-10-30T22:04:07.138Z,6.13
2022-10-30T22:06:40.264Z,6.10
2022-10-30T22:09:11.099Z,5.45
2022-10-30T22:11:39.990Z,5.95
2022-10-30T22:14:08.925Z,6.25
2022-10-30T22:16:39.926Z,6.35
2022-10-30T22:19:10.123Z,5.88
2022-10-30T22:21:38.617Z,6.00
2022-10-30T22:24:08.016Z,5.40
2022-10-30T22:26:37.825Z,5.93
2022-10-30T22:29:06.652Z,5.03
2022-10-30T22:31:35.368Z,5.38
2022-10-30T22:34:04.559Z,6.18
2022-10-30T22:36:35.050Z,5.70
2022-10-30T22:39:06.744Z,6.13
2022-10-30T22:41:38.497Z,5.35
2022-10-30T22:44:08.998Z,5.18
2022-10-30T22:46:38.698Z,5.70
2022-10-30T22:49:07.829Z,6.07
2022-10-30T22:51:38.493Z,5.45
2022-10-30T22:54:09.531Z,5.45
2022-10-30T22:56:40.713Z,5.50
2022-10-30T22:59:13.036Z,5.20
2022-10-30T23:01:42.421Z,5.45
2022-10-30T23:04:12.909Z,5.55
2022-10-30T23:06:41.386Z,5.88
2022-10-30T23:09:15.912Z,5.32
2022-10-30T23:11:46.372Z,5.88
2022-10-30T23:14:15.541Z,7.20
2022-10-30T23:16:44.075Z,5.82
2022-10-30T23:19:12.640Z,6.05
2022-10-30T23:21:41.472Z,6.60
2022-10-30T23:24:09.928Z,6.38
2022-10-30T23:26:39.006Z,5.57
2022-10-30T23:29:08.807Z,7.13
2022-10-30T23:31:39.381Z,6.13
2022-10-30T23:34:09.879Z,8.05
2022-10-30T23:36:39.720Z,8.13
2022-10-30T23:39:10.845Z,7.10
2022-10-30T23:41:39.455Z,6.80
2022-10-30T23:44:12.865Z,6.63
2022-10-30T23:46:41.533Z,6.97
2022-10-30T23:49:10.676Z,6.72
2022-10-30T23:51:39.315Z,6.82
2022-10-30T23:54:07.717Z,6.60
2022-10-30T23:56:36.600Z,5.57
2022-10-30T23:59:05.254Z,5.38
